Time;durP1;ratioP1;P1;durP2;ratioP2;P2;SDS_P1;SDS_P2;PMS_P1;PMS_P2;Temp;Humidity;BMP_temperature;BMP_pressure;BME280_temperature;BME280_humidity;BME280_pressure;Samples;Min_cycle;Max_cycle;Signal;HPM_P1;HPM_P2
2021/07/12 00:00:15;;;;;;;9.63;4.50;;;;;;;12.02;100.00;95800.19;1015106;29;20044;-67
2021/07/12 00:00:46;;;;;;;8.63;5.72;;;;;;;12.12;100.00;95803.84;1009963;29;20040;-68
2021/07/12 00:01:19;;;;;;;9.18;6.25;;;;;;;12.08;100.00;95795.69;1011151;29;20268;-68
2021/07/12 00:01:49;;;;;;;9.95;5.78;;;;;;;12.11;100.00;95802.28;1020508;29;20283;-68
2021/07/12 00:02:20;;;;;;;8.63;5.05;;;;;;;12.11;100.00;95804.91;1022886;29;20038;-68
2021/07/12 00:02:51;;;;;;;9.80;5.30;;;;;;;12.05;100.00;95795.44;1021639;29;20027;-68
2021/07/12 00:03:21;;;;;;;8.07;5.45;;;;;;;12.09;100.00;95796.47;1015665;29;20091;-68
2021/07/12 00:03:51;;;;;;;7.03;5.20;;;;;;;12.05;100.00;95803.34;1019243;29;20275;-68
2021/07/12 00:04:22;;;;;;;10.15;4.85;;;;;;;11.97;100.00;95794.16;1018760;29;20059;-66
2021/07/12 00:04:52;;;;;;;6.00;4.90;;;;;;;12.02;100.00;95800.19;1019150;29;20035;-68
2021/07/12 00:05:23;;;;;;;5.75;4.97;;;;;;;12.03;100.00;95803.59;1015294;29;20032;-68
2021/07/12 00:05:56;;;;;;;6.57;5.22;;;;;;;12.00;100.00;95801.50;1015215;29;20579;-68
2021/07/12 00:06:27;;;;;;;9.65;5.45;;;;;;;11.96;100.00;95785.47;1012369;29;20848;-68
2021/07/12 00:06:57;;;;;;;11.40;5.10;;;;;;;11.99;100.00;95792.84;1015460;29;20279;-67
2021/07/12 00:07:28;;;;;;;6.10;4.55;;;;;;;11.99;100.00;95794.69;1014776;29;20047;-67
2021/07/12 00:07:58;;;;;;;5.85;4.85;;;;;;;12.02;100.00;95789.66;1018857;29;20020;-68
2021/07/12 00:08:31;;;;;;;9.40;5.47;;;;;;;12.05;100.00;95801.50;1019372;29;20067;-68
2021/07/12 00:09:03;;;;;;;8.75;5.60;;;;;;;12.03;100.00;95796.50;1019224;29;20047;-67
2021/07/12 00:09:33;;;;;;;6.07;5.20;;;;;;;11.86;100.00;95772.38;1010978;29;20889;-68
2021/07/12 00:10:05;;;;;;;6.93;5.50;;;;;;;12.05;100.00;95803.34;1015471;29;20287;-67
2021/07/12 00:10:36;;;;;;;10.50;5.93;;;;;;;12.00;100.00;95791.78;1019130;29;20469;-68
2021/07/12 00:11:06;;;;;;;8.65;5.35;;;;;;;12.01;100.00;95803.88;1024180;28;20301;-68
2021/07/12 00:11:37;;;;;;;10.75;5.55;;;;;;;12.01;100.00;95796.00;1019084;29;20031;-68
2021/07/12 00:12:09;;;;;;;8.73;5.28;;;;;;;12.02;100.00;95800.19;1019232;29;20725;-68
2021/07/12 00:12:43;;;;;;;5.65;5.10;;;;;;;11.99;100.00;95792.03;1019002;29;20036;-68
2021/07/12 00:13:16;;;;;;;8.57;5.10;;;;;;;11.97;100.00;95799.41;1016051;29;20979;-68
2021/07/12 00:13:48;;;;;;;8.75;4.60;;;;;;;11.96;100.00;95796.00;1016259;29;20283;-68
2021/07/12 00:14:19;;;;;;;7.00;4.30;;;;;;;11.97;100.00;95794.16;1015860;29;20808;-68
2021/07/12 00:14:49;;;;;;;6.65;4.80;;;;;;;11.92;100.00;95791.56;1016848;29;20287;-68
2021/07/12 00:15:21;;;;;;;7.32;4.25;;;;;;;11.95;100.00;95794.44;1019421;29;20020;-67
2021/07/12 00:15:54;;;;;;;7.10;4.85;;;;;;;11.96;100.00;95795.22;1019226;29;20572;-68
2021/07/12 00:16:24;;;;;;;8.25;5.13;;;;;;;11.92;100.00;95789.72;1015064;29;20268;-68
2021/07/12 00:16:55;;;;;;;9.50;5.85;;;;;;;11.92;100.00;95794.19;1015328;29;20286;-68
2021/07/12 00:17:25;;;;;;;8.70;5.47;;;;;;;11.86;100.00;95784.75;1014579;29;20031;-68
2021/07/12 00:17:56;;;;;;;10.20;5.65;;;;;;;11.87;100.00;95788.94;1018764;29;20110;-68
2021/07/12 00:18:26;;;;;;;6.60;5.90;;;;;;;11.91;100.00;95788.16;1023001;29;20516;-68
2021/07/12 00:18:57;;;;;;;6.88;4.60;;;;;;;11.89;100.00;95790.25;1023086;29;20386;-68
2021/07/12 00:19:27;;;;;;;5.03;4.07;;;;;;;11.88;100.00;95787.91;1014000;29;20040;-68
2021/07/12 00:19:58;;;;;;;10.90;4.88;;;;;;;11.84;100.00;95782.38;1017243;29;20479;-68
2021/07/12 00:20:28;;;;;;;9.05;4.50;;;;;;;11.86;100.00;95787.38;1014884;29;20563;-68
2021/07/12 00:20:59;;;;;;;4.50;4.10;;;;;;;11.86;100.00;95790.78;1015206;29;20028;-68
2021/07/12 00:21:29;;;;;;;5.75;4.40;;;;;;;11.81;100.00;95775.00;1011149;29;20074;-67
2021/07/12 00:22:00;;;;;;;8.77;4.70;;;;;;;11.87;100.00;95787.13;1019208;29;20031;-68
2021/07/12 00:22:30;;;;;;;8.93;4.75;;;;;;;11.86;100.00;95784.75;1019326;29;20832;-68
2021/07/12 00:23:01;;;;;;;5.70;4.88;;;;;;;11.86;100.00;95782.09;1016110;29;20569;-68
2021/07/12 00:23:31;;;;;;;7.68;5.80;;;;;;;11.84;100.00;95787.66;1014993;29;20032;-68
2021/07/12 00:24:02;;;;;;;7.35;5.53;;;;;;;11.84;100.00;95782.38;1015322;29;20051;-67
2021/07/12 00:24:32;;;;;;;8.00;6.10;;;;;;;11.82;100.00;95778.41;1015981;29;20282;-67
2021/07/12 00:25:04;;;;;;;7.85;5.53;;;;;;;11.77;100.00;95776.59;1015070;29;20126;-67
2021/07/12 00:25:34;;;;;;;7.50;5.38;;;;;;;11.77;100.00;95776.59;1015156;29;20034;-68
2021/07/12 00:26:05;;;;;;;8.43;4.32;;;;;;;11.75;100.00;95784.75;1015191;29;20272;-67
2021/07/12 00:26:35;;;;;;;6.70;4.70;;;;;;;11.76;100.00;95786.31;1011336;29;20040;-67
2021/07/12 00:27:11;;;;;;;8.02;4.72;;;;;;;11.72;100.00;95779.25;1011330;29;20116;-67
2021/07/12 00:27:41;;;;;;;6.15;5.10;;;;;;;11.74;100.00;95777.16;1015037;29;20276;-68
2021/07/12 00:28:12;;;;;;;11.48;6.03;;;;;;;11.74;100.00;95774.50;1015332;29;20276;-67
2021/07/12 00:28:45;;;;;;;6.53;5.43;;;;;;;11.76;100.00;95780.28;1015214;29;20157;-68
2021/07/12 00:29:15;;;;;;;6.70;5.70;;;;;;;11.76;100.00;95785.53;1014733;29;20345;-67
2021/07/12 00:29:46;;;;;;;6.45;5.32;;;;;;;11.76;100.00;95775.00;1013520;29;20065;-68
2021/07/12 00:30:19;;;;;;;9.18;5.25;;;;;;;11.74;100.00;95772.66;1018005;29;20027;-67
2021/07/12 00:30:49;;;;;;;8.90;5.90;;;;;;;11.76;100.00;95783.69;1014786;29;20067;-68
2021/07/12 00:31:20;;;;;;;7.60;5.50;;;;;;;11.73;100.00;95770.28;1017601;29;20294;-69
2021/07/12 00:31:53;;;;;;;10.43;6.25;;;;;;;11.68;100.00;95773.72;1014478;29;20028;-68
2021/07/12 00:32:24;;;;;;;7.75;5.38;;;;;;;11.70;100.00;95765.56;1015665;29;20267;-68
2021/07/12 00:32:56;;;;;;;9.10;5.00;;;;;;;11.71;100.00;95773.19;1014797;29;20032;-65
2021/07/12 00:33:26;;;;;;;6.65;4.72;;;;;;;11.74;100.00;95780.56;1007470;29;20161;-68
2021/07/12 00:33:59;;;;;;;9.13;5.30;;;;;;;11.75;100.00;95783.97;1008349;29;20265;-68
2021/07/12 00:34:30;;;;;;;13.75;5.70;;;;;;;11.74;100.00;95771.88;1016059;29;20032;-67
2021/07/12 00:35:00;;;;;;;8.82;5.63;;;;;;;11.73;100.00;95771.06;1011986;29;20273;-67
2021/07/12 00:35:31;;;;;;;9.57;5.60;;;;;;;11.73;100.00;95780.81;1011278;29;20039;-68
2021/07/12 00:36:01;;;;;;;10.57;5.32;;;;;;;11.71;100.00;95777.69;1011511;29;20044;-68
2021/07/12 00:36:32;;;;;;;5.43;4.88;;;;;;;11.71;100.00;95777.69;1011269;29;20041;-68
2021/07/12 00:37:02;;;;;;;7.93;5.07;;;;;;;11.71;100.00;95772.41;1014677;29;20055;-68
2021/07/12 00:37:33;;;;;;;6.65;5.60;;;;;;;11.64;100.00;95756.16;1022520;29;20122;-68
2021/07/12 00:38:03;;;;;;;7.85;5.78;;;;;;;11.74;100.00;95767.41;1019165;29;20031;-67
2021/07/12 00:38:34;;;;;;;7.00;6.05;;;;;;;11.77;100.00;95771.34;1017551;29;20027;-67
2021/07/12 00:39:05;;;;;;;7.75;5.93;;;;;;;11.76;100.00;95764.50;1015205;29;20514;-68
2021/07/12 00:39:35;;;;;;;6.90;6.10;;;;;;;11.79;100.00;95763.97;1015047;29;20031;-68
2021/07/12 00:40:06;;;;;;;8.68;6.05;;;;;;;11.75;100.00;95758.47;1017652;29;22052;-65
2021/07/12 00:40:40;;;;;;;8.15;6.05;;;;;;;11.82;100.00;95767.91;1019368;29;20024;-67
2021/07/12 00:41:13;;;;;;;8.13;6.13;;;;;;;11.81;100.00;95767.13;1014404;29;20303;-66
2021/07/12 00:41:44;;;;;;;6.60;5.65;;;;;;;11.78;100.00;95751.88;1016727;29;20299;-67
2021/07/12 00:42:15;;;;;;;8.68;6.03;;;;;;;11.81;100.00;95767.13;1009654;29;20815;-68
2021/07/12 00:42:46;;;;;;;8.52;6.35;;;;;;;11.81;100.00;95767.13;1008482;29;20705;-68
2021/07/12 00:43:16;;;;;;;11.57;6.63;;;;;;;11.59;100.00;95729.88;1007386;29;20093;-68
2021/07/12 00:43:47;;;;;;;7.55;6.13;;;;;;;11.81;100.00;95761.88;1009622;29;20037;-68
2021/07/12 00:44:17;;;;;;;9.80;6.10;;;;;;;11.81;100.00;95759.22;1015468;29;20032;-67
2021/07/12 00:44:47;;;;;;;8.82;6.32;;;;;;;11.79;100.00;95753.44;1019287;29;20036;-67
2021/07/12 00:45:28;;;;;;;12.57;7.03;;;;;;;11.81;100.00;95761.88;1019166;29;20482;-68
2021/07/12 00:45:59;;;;;;;9.77;6.40;;;;;;;11.80;100.00;95755.00;1018973;29;20028;-68
2021/07/12 00:46:29;;;;;;;8.00;6.28;;;;;;;11.80;100.00;95753.19;1019067;29;20394;-67
2021/07/12 00:47:00;;;;;;;7.07;5.80;;;;;;;11.82;100.00;95757.38;1016035;29;20664;-66
2021/07/12 00:47:30;;;;;;;9.52;6.38;;;;;;;11.80;100.00;95752.38;1018491;29;20031;-68
2021/07/12 00:48:01;;;;;;;8.07;6.00;;;;;;;11.72;100.00;95740.59;1019270;29;20038;-68
2021/07/12 00:48:33;;;;;;;11.77;6.22;;;;;;;11.78;100.00;95747.41;1015099;29;20040;-67
2021/07/12 00:49:03;;;;;;;7.95;6.20;;;;;;;11.78;100.00;95747.41;1015157;29;20028;-68
2021/07/12 00:49:35;;;;;;;9.00;6.22;;;;;;;11.72;100.00;95734.56;1015656;29;20332;-67
2021/07/12 00:50:07;;;;;;;9.63;6.10;;;;;;;11.71;100.00;95735.63;1014560;29;20101;-68
2021/07/12 00:50:38;;;;;;;6.55;5.72;;;;;;;11.77;100.00;95747.69;1015432;29;20276;-68
2021/07/12 00:51:09;;;;;;;8.20;5.72;;;;;;;11.76;100.00;95739.00;1015311;29;20919;-67
2021/07/12 00:51:40;;;;;;;8.45;6.40;;;;;;;11.73;100.00;95739.53;1015365;29;20933;-68
2021/07/12 00:52:11;;;;;;;7.68;6.40;;;;;;;11.78;100.00;95741.38;1013170;29;20379;-67
2021/07/12 00:52:45;;;;;;;11.00;6.85;;;;;;;11.76;100.00;95744.25;1011494;29;20029;-68
2021/07/12 00:53:16;;;;;;;15.38;7.05;;;;;;;11.75;100.00;95747.94;1011909;29;20028;-68
2021/07/12 00:53:46;;;;;;;8.95;6.85;;;;;;;11.72;100.00;95737.19;1015951;29;20912;-68
2021/07/12 00:54:16;;;;;;;8.57;6.68;;;;;;;11.75;100.00;95736.66;1017542;29;20698;-66
2021/07/12 00:54:47;;;;;;;10.07;7.13;;;;;;;11.73;100.00;95742.16;1011383;29;20044;-68
2021/07/12 00:55:23;;;;;;;14.25;7.38;;;;;;;11.73;100.00;95741.38;1015371;29;20032;-67
2021/07/12 00:55:54;;;;;;;11.10;7.32;;;;;;;11.70;100.00;95736.66;1015258;29;20028;-67
2021/07/12 00:56:24;;;;;;;9.20;7.00;;;;;;;11.71;100.00;95733.00;1015238;29;20325;-67
2021/07/12 00:56:55;;;;;;;10.25;6.82;;;;;;;11.71;100.00;95738.25;1011330;29;20056;-67
2021/07/12 00:57:26;;;;;;;10.77;6.70;;;;;;;11.71;100.00;95741.66;1010102;29;20032;-67
2021/07/12 00:57:56;;;;;;;9.10;6.43;;;;;;;11.67;100.00;95734.56;1011479;29;20043;-68
2021/07/12 00:58:29;;;;;;;11.02;7.70;;;;;;;11.68;100.00;95736.16;1015571;29;20486;-67
2021/07/12 00:59:00;;;;;;;8.52;7.00;;;;;;;11.67;100.00;95734.56;1019129;29;20275;-68
2021/07/12 00:59:30;;;;;;;9.10;6.80;;;;;;;11.67;100.00;95732.75;1018654;29;20060;-67
2021/07/12 01:00:01;;;;;;;8.82;6.70;;;;;;;11.66;100.00;95738.25;1015897;29;20035;-67
2021/07/12 01:00:31;;;;;;;7.90;5.90;;;;;;;11.66;100.00;95738.25;1015329;29;20036;-67
2021/07/12 01:01:03;;;;;;;9.48;6.72;;;;;;;11.67;100.00;95735.38;1015533;29;20047;-68
2021/07/12 01:01:34;;;;;;;14.43;7.18;;;;;;;11.66;100.00;95733.00;1014599;29;20047;-68
2021/07/12 01:02:04;;;;;;;10.85;6.85;;;;;;;11.66;100.00;95736.41;1011736;29;20265;-68
2021/07/12 01:02:35;;;;;;;12.65;8.02;;;;;;;11.60;100.00;95721.72;1015001;29;20024;-67
2021/07/12 01:03:06;;;;;;;11.20;7.22;;;;;;;11.63;100.00;95734.31;1019271;29;20055;-67
2021/07/12 01:03:36;;;;;;;10.05;7.43;;;;;;;11.66;100.00;95739.03;1019047;29;20059;-67
2021/07/12 01:04:07;;;;;;;13.93;8.10;;;;;;;11.65;100.00;95731.44;1013969;29;20422;-68
2021/07/12 01:04:37;;;;;;;10.70;7.25;;;;;;;11.61;100.00;95725.94;1014890;29;20028;-68
2021/07/12 01:05:10;;;;;;;14.63;7.60;;;;;;;11.61;100.00;95731.19;1015044;29;20028;-68
2021/07/12 01:05:41;;;;;;;9.95;7.35;;;;;;;11.62;100.00;95732.75;1015306;29;20035;-65
2021/07/12 01:06:12;;;;;;;7.63;6.68;;;;;;;11.64;100.00;95740.38;1012730;29;20609;-68
2021/07/12 01:06:42;;;;;;;7.97;6.50;;;;;;;11.63;100.00;95733.53;1015057;29;20097;-67
2021/07/12 01:07:13;;;;;;;12.70;7.20;;;;;;;11.60;100.00;95728.81;1011043;29;20030;-67
2021/07/12 01:07:44;;;;;;;9.63;6.97;;;;;;;11.62;100.00;95739.84;1010553;29;20025;-67
2021/07/12 01:08:17;;;;;;;11.70;7.20;;;;;;;11.54;100.00;95726.22;1015186;29;20275;-68
2021/07/12 01:08:48;;;;;;;9.45;7.13;;;;;;;11.59;100.00;95732.50;1015212;29;20024;-67
2021/07/12 01:09:18;;;;;;;11.00;7.05;;;;;;;11.61;100.00;95735.66;1014858;29;20341;-68
2021/07/12 01:09:49;;;;;;;10.68;6.88;;;;;;;11.54;100.00;95726.22;1012158;29;20025;-67
2021/07/12 01:10:19;;;;;;;11.95;7.50;;;;;;;11.59;100.00;95732.50;1015454;29;20021;-68
2021/07/12 01:11:04;;;;;;;13.82;7.20;;;;;;;11.60;100.00;95728.81;1010874;29;20035;-67
2021/07/12 01:11:58;;;;;;;12.88;7.07;;;;;;;11.57;100.00;95730.94;1015168;29;20032;-69
2021/07/12 01:12:47;;;;;;;10.25;7.47;;;;;;;11.58;100.00;95729.09;1014623;29;20279;-64
2021/07/12 01:13:36;;;;;;;8.60;6.63;;;;;;;11.58;100.00;95731.72;1014383;29;20264;-68
2021/07/12 01:14:31;;;;;;;8.27;6.60;;;;;;;11.57;100.00;95730.94;1020204;29;20264;-68
2021/07/12 01:15:06;;;;;;;8.20;6.72;;;;;;;11.56;100.00;95733.81;1022615;29;20326;-67
2021/07/12 01:15:43;;;;;;;8.43;7.18;;;;;;;11.53;100.00;95724.63;1022978;29;20294;-68
2021/07/12 01:16:38;;;;;;;12.05;7.63;;;;;;;11.55;100.00;95735.66;1019996;29;20271;-67
2021/07/12 01:17:42;;;;;;;10.57;7.47;;;;;;;11.53;100.00;95729.09;1021455;29;20315;-67
2021/07/12 01:18:22;;;;;;;10.75;7.47;;;;;;;11.53;100.00;95735.13;1015177;29;20267;-68
2021/07/12 01:19:07;;;;;;;;;;;;;;;11.53;100.00;95729.09;1015561;29;20800;-68
2021/07/12 01:20:07;;;;;;;11.95;7.40;;;;;;;11.53;100.00;95723.84;1016244;29;19915;-65
2021/07/12 01:21:06;;;;;;;10.57;7.75;;;;;;;11.53;100.00;95724.63;1021213;29;20266;-68
2021/07/12 01:21:53;;;;;;;9.95;7.80;;;;;;;11.50;100.00;95719.94;1021033;29;20260;-67
2021/07/12 01:22:32;;;;;;;15.40;8.68;;;;;;;11.43;100.00;95713.38;1019107;29;20395;-67
2021/07/12 01:23:05;;;;;;;10.43;8.13;;;;;;;11.48;100.00;95721.25;1018616;29;20279;-68
2021/07/12 01:24:00;;;;;;;9.80;7.40;;;;;;;11.47;100.00;95720.47;1018948;29;20323;-67
2021/07/12 01:24:43;;;;;;;12.50;8.00;;;;;;;11.42;100.00;95711.81;1022802;29;20382;-68
2021/07/12 01:25:47;;;;;;;12.05;7.68;;;;;;;11.47;100.00;95719.69;1023204;28;20271;-68
2021/07/12 01:26:36;;;;;;;11.18;8.02;;;;;;;11.45;100.00;95722.56;1022377;28;20262;-68
2021/07/12 01:27:15;;;;;;;11.98;8.15;;;;;;;11.44;100.00;95718.38;1018543;29;20255;-68
2021/07/12 01:28:23;;;;;;;15.85;8.73;;;;;;;11.44;100.00;95715.75;1019273;29;20706;-68
2021/07/12 01:29:07;;;;;;;11.27;7.65;;;;;;;11.42;100.00;95714.44;1017221;29;20704;-67
2021/07/12 01:29:56;;;;;;;13.77;8.43;;;;;;;11.42;100.00;95712.59;1019292;28;20313;-68
2021/07/12 01:31:00;;;;;;;13.48;8.70;;;;;;;11.41;100.00;95716.28;1019484;29;20266;-68
2021/07/12 01:32:08;;;;;;;10.35;7.80;;;;;;;11.39;100.00;95713.13;1021330;29;20267;-67
2021/07/12 01:32:49;;;;;;;12.02;8.05;;;;;;;11.40;100.00;95714.72;1023282;29;20625;-68
2021/07/12 01:33:32;;;;;;;13.90;8.30;;;;;;;11.32;100.00;95702.09;1023228;29;20304;-68
2021/07/12 01:34:08;;;;;;;10.55;8.65;;;;;;;11.37;100.00;95710.00;1022923;28;20263;-68
2021/07/12 01:34:59;;;;;;;12.85;8.80;;;;;;;11.36;100.00;95708.41;1022964;29;20270;-68
2021/07/12 01:36:05;;;;;;;13.38;8.55;;;;;;;11.39;100.00;95712.34;1007213;29;20365;-67
2021/07/12 01:36:55;;;;;;;12.32;8.30;;;;;;;11.36;100.00;95705.00;1004567;29;20646;-69
2021/07/12 01:37:31;;;;;;;11.10;8.45;;;;;;;11.35;100.00;95701.56;1021260;29;20270;-68
2021/07/12 01:38:32;;;;;;;13.13;8.52;;;;;;;11.33;100.00;95709.75;1018695;29;20517;-68
2021/07/12 01:39:12;;;;;;;15.20;8.60;;;;;;;11.32;100.00;95696.84;1015477;29;20294;-69
2021/07/12 01:39:47;;;;;;;11.27;8.23;;;;;;;11.31;100.00;95703.16;1016323;29;20824;-66
2021/07/12 01:40:43;;;;;;;12.13;8.18;;;;;;;11.30;100.00;95704.22;1021199;29;20045;-68
2021/07/12 01:41:36;;;;;;;10.68;7.82;;;;;;;11.29;100.00;95702.63;1018995;29;20320;-68
2021/07/12 01:42:08;;;;;;;17.75;8.43;;;;;;;11.27;100.00;95710.03;1017511;29;20358;-67
2021/07/12 01:43:02;;;;;;;11.70;8.25;;;;;;;11.27;100.00;95710.03;1016587;29;20323;-68
2021/07/12 01:43:44;;;;;;;10.50;7.35;;;;;;;11.25;100.00;95709.50;1022274;28;20261;-68
2021/07/12 01:44:39;;;;;;;12.57;8.68;;;;;;;11.26;100.00;95708.44;1017353;29;20267;-66
2021/07/12 01:45:14;;;;;;;12.48;8.63;;;;;;;11.24;100.00;95706.09;1015135;29;20320;-67
2021/07/12 01:46:07;;;;;;;12.77;8.48;;;;;;;11.25;100.00;95704.25;1015138;29;20276;-68
2021/07/12 01:47:07;;;;;;;12.32;8.32;;;;;;;11.23;100.00;95708.97;1014783;29;20269;-67
2021/07/12 01:48:08;;;;;;;10.40;8.13;;;;;;;11.20;100.00;95705.03;999657;29;20369;-67
2021/07/12 01:48:54;;;;;;;12.57;7.68;;;;;;;11.18;100.00;95701.09;1014328;29;20028;-68
2021/07/12 01:49:57;;;;;;;12.77;8.50;;;;;;;11.17;100.00;95702.94;1014928;29;20375;-68
2021/07/12 01:50:44;;;;;;;13.23;7.90;;;;;;;11.17;100.00;95704.78;1009571;29;20752;-67
2021/07/12 01:51:15;;;;;;;9.48;7.65;;;;;;;11.16;100.00;95705.81;1011163;29;20316;-68
2021/07/12 01:51:52;;;;;;;12.80;8.20;;;;;;;11.16;100.00;95700.56;1014299;29;20876;-68
2021/07/12 01:52:28;;;;;;;15.80;8.77;;;;;;;11.15;100.00;95697.16;1013600;29;20091;-69
2021/07/12 01:53:03;;;;;;;13.93;10.10;;;;;;;11.16;100.00;95700.56;1014625;29;20260;-67
2021/07/12 01:53:50;;;;;;;14.32;8.55;;;;;;;11.15;100.00;95701.63;1010932;29;20919;-68
2021/07/12 01:54:53;;;;;;;13.98;9.18;;;;;;;11.16;100.00;95698.72;1014973;29;20869;-67
2021/07/12 01:55:36;;;;;;;16.58;9.48;;;;;;;11.16;100.00;95696.09;1011054;29;20771;-69
2021/07/12 01:56:09;;;;;;;13.85;9.23;;;;;;;11.12;100.00;95692.44;1018547;29;20263;-67
2021/07/12 01:56:53;;;;;;;14.48;10.48;;;;;;;11.19;100.00;95697.41;1018937;29;20255;-67
2021/07/12 01:57:27;;;;;;;18.55;10.45;;;;;;;11.21;100.00;95697.94;1013787;29;20271;-68
2021/07/12 01:58:04;;;;;;;15.43;10.90;;;;;;;11.18;100.00;95695.84;1012213;29;20368;-67
2021/07/12 01:58:41;;;;;;;14.95;10.63;;;;;;;11.19;100.00;95692.16;1013567;29;20801;-68
2021/07/12 01:59:16;;;;;;;13.60;10.25;;;;;;;11.14;100.00;95689.56;1018737;29;20765;-68
2021/07/12 01:59:56;;;;;;;12.45;9.80;;;;;;;11.19;100.00;95686.91;1019228;29;20274;-68
2021/07/12 02:00:27;;;;;;;15.25;10.73;;;;;;;11.18;100.00;95688.75;1014796;29;20284;-68
2021/07/12 02:00:57;;;;;;;14.73;10.60;;;;;;;11.19;100.00;95689.53;1006981;29;20033;-67
2021/07/12 02:01:28;;;;;;;15.63;10.35;;;;;;;11.11;100.00;95683.00;1003682;29;20021;-68
2021/07/12 02:01:58;;;;;;;14.23;11.05;;;;;;;11.14;100.00;95673.81;1014929;29;20028;-68
2021/07/12 02:02:29;;;;;;;16.65;11.18;;;;;;;11.20;100.00;95680.59;1010788;29;20028;-66
2021/07/12 02:03:00;;;;;;;18.83;11.32;;;;;;;11.17;100.00;95681.16;1003130;29;20029;-67
2021/07/12 02:03:30;;;;;;;17.77;11.57;;;;;;;11.20;100.00;95678.78;1010974;29;20273;-67
2021/07/12 02:04:01;;;;;;;22.60;12.73;;;;;;;11.17;100.00;95679.31;1010771;29;20076;-68
2021/07/12 02:04:32;;;;;;;18.63;12.15;;;;;;;11.19;100.00;95676.41;1010929;29;20024;-67
2021/07/12 02:05:05;;;;;;;19.80;12.15;;;;;;;11.20;100.00;95683.22;1010831;29;20897;-68
2021/07/12 02:05:36;;;;;;;22.05;11.63;;;;;;;11.16;100.00;95672.47;1007111;29;20041;-68
2021/07/12 02:06:08;;;;;;;19.92;11.45;;;;;;;11.17;100.00;95668.03;1007389;29;20265;-67
2021/07/12 02:06:39;;;;;;;17.67;11.68;;;;;;;11.21;100.00;95677.72;1010981;29;20284;-67
2021/07/12 02:07:13;;;;;;;20.38;12.23;;;;;;;11.21;100.00;95679.56;1014314;29;20661;-66
2021/07/12 02:07:43;;;;;;;16.65;11.73;;;;;;;11.17;100.00;95673.28;1014641;29;20388;-68
2021/07/12 02:08:20;;;;;;;18.08;11.73;;;;;;;11.19;100.00;95677.19;1014574;29;20727;-68
2021/07/12 02:08:51;;;;;;;16.95;11.30;;;;;;;11.17;100.00;95675.91;1018946;29;20027;-67
2021/07/12 02:09:24;;;;;;;18.25;11.60;;;;;;;11.19;100.00;95679.81;1010759;29;20268;-67
2021/07/12 02:09:54;;;;;;;18.42;11.95;;;;;;;11.19;100.00;95679.03;1017709;29;20110;-67
2021/07/12 02:10:26;;;;;;;15.63;11.00;;;;;;;11.18;100.00;95677.47;1019011;29;20350;-68
2021/07/12 02:10:57;;;;;;;16.00;10.35;;;;;;;11.16;100.00;95677.72;1018295;29;20019;-68
2021/07/12 02:11:27;;;;;;;13.38;9.48;;;;;;;11.16;100.00;95676.94;1014467;29;20291;-68
2021/07/12 02:11:58;;;;;;;15.18;10.73;;;;;;;11.14;100.00;95679.84;1010608;29;20032;-68
2021/07/12 02:12:28;;;;;;;18.15;10.90;;;;;;;11.13;100.00;95675.63;1007028;29;20025;-67
2021/07/12 02:12:59;;;;;;;15.55;10.85;;;;;;;11.16;100.00;95679.56;1011375;29;20648;-68
2021/07/12 02:13:29;;;;;;;16.15;10.98;;;;;;;11.15;100.00;95681.41;1010682;29;20051;-67
2021/07/12 02:14:00;;;;;;;15.00;10.60;;;;;;;11.16;100.00;95679.56;1007116;29;20581;-68
2021/07/12 02:14:31;;;;;;;13.23;10.10;;;;;;;11.14;100.00;95684.31;1011182;29;20040;-67
2021/07/12 02:15:02;;;;;;;18.60;11.38;;;;;;;11.12;100.00;95675.91;1014294;29;20029;-68
2021/07/12 02:15:34;;;;;;;14.88;10.52;;;;;;;11.13;100.00;95683.50;1018870;29;20046;-67
2021/07/12 02:16:04;;;;;;;16.23;9.90;;;;;;;11.13;100.00;95680.88;1018609;29;20282;-68
2021/07/12 02:16:36;;;;;;;15.05;10.60;;;;;;;11.13;100.00;95677.47;1016580;29;20391;-67
2021/07/12 02:17:06;;;;;;;14.70;9.93;;;;;;;11.13;100.00;95672.22;1014222;29;20865;-67
2021/07/12 02:17:37;;;;;;;15.10;10.05;;;;;;;11.11;100.00;95683.00;1013873;29;20303;-68
2021/07/12 02:18:07;;;;;;;15.38;10.60;;;;;;;11.08;100.00;95678.28;1015971;29;20020;-68
2021/07/12 02:18:38;;;;;;;15.43;10.93;;;;;;;11.08;100.00;95681.69;1022877;29;20066;-68
2021/07/12 02:19:08;;;;;;;14.20;10.02;;;;;;;11.12;100.00;95687.19;1010853;29;20051;-66
2021/07/12 02:19:39;;;;;;;17.05;10.73;;;;;;;11.11;100.00;95680.38;1015005;29;20027;-67
2021/07/12 02:20:09;;;;;;;14.95;10.27;;;;;;;11.12;100.00;95681.16;1006895;29;20055;-67
2021/07/12 02:20:40;;;;;;;17.00;11.02;;;;;;;11.11;100.00;95682.22;1011028;29;20131;-67
2021/07/12 02:21:10;;;;;;;14.93;10.48;;;;;;;11.09;100.00;95682.47;1011140;29;20525;-67
2021/07/12 02:21:41;;;;;;;15.35;10.68;;;;;;;11.09;100.00;95683.25;1010576;29;20535;-68
2021/07/12 02:22:15;;;;;;;14.88;10.25;;;;;;;11.11;100.00;95676.97;1010694;29;20550;-68
2021/07/12 02:22:46;;;;;;;17.80;11.20;;;;;;;11.06;100.00;95675.13;1011122;29;20032;-68
2021/07/12 02:23:16;;;;;;;17.02;11.05;;;;;;;11.09;100.00;95680.63;1010394;29;20272;-67
2021/07/12 02:23:47;;;;;;;18.95;11.57;;;;;;;11.08;100.00;95676.44;1014872;29;20039;-67
2021/07/12 02:24:17;;;;;;;18.67;11.48;;;;;;;11.05;100.00;95666.47;1014662;29;20047;-67
2021/07/12 02:24:48;;;;;;;16.73;11.88;;;;;;;11.06;100.00;95678.53;1018670;29;20019;-67
2021/07/12 02:25:18;;;;;;;18.13;11.50;;;;;;;11.05;100.00;95671.72;1014657;29;20635;-68
2021/07/12 02:25:51;;;;;;;15.32;11.07;;;;;;;11.07;100.00;95672.25;1014719;29;20028;-68
2021/07/12 02:26:22;;;;;;;17.20;11.50;;;;;;;11.05;100.00;95676.19;1010823;29;20027;-68
2021/07/12 02:26:53;;;;;;;17.17;11.25;;;;;;;10.98;100.00;95665.19;1010163;29;20268;-68
2021/07/12 02:27:23;;;;;;;17.15;11.63;;;;;;;11.06;100.00;95673.28;1009861;29;20043;-68
2021/07/12 02:27:54;;;;;;;16.95;11.18;;;;;;;11.09;100.00;95683.25;1011039;29;20492;-68
2021/07/12 02:28:24;;;;;;;14.88;11.52;;;;;;;11.09;100.00;95683.25;1010574;29;20035;-68
2021/07/12 02:28:55;;;;;;;15.38;10.57;;;;;;;11.09;100.00;95685.09;1006549;29;20025;-68
2021/07/12 02:29:25;;;;;;;15.93;11.48;;;;;;;11.06;100.00;95678.53;1011192;29;20032;-67
2021/07/12 02:29:56;;;;;;;18.33;11.55;;;;;;;11.05;100.00;95676.97;1014439;29;20024;-68
2021/07/12 02:30:27;;;;;;;17.73;10.88;;;;;;;11.08;100.00;95671.19;1002699;29;20142;-67
2021/07/12 02:30:57;;;;;;;16.67;11.70;;;;;;;11.08;100.00;95681.69;1009194;29;20118;-68
2021/07/12 02:31:30;;;;;;;17.60;11.07;;;;;;;11.11;100.00;95676.97;1015097;29;20032;-67
2021/07/12 02:32:03;;;;;;;16.70;11.35;;;;;;;11.09;100.00;95682.47;1010660;29;20277;-67
2021/07/12 02:32:35;;;;;;;18.33;12.32;;;;;;;11.11;100.00;95676.97;1010673;29;20498;-67
2021/07/12 02:33:05;;;;;;;22.10;12.30;;;;;;;11.12;100.00;95681.16;1010801;29;20372;-68
2021/07/12 02:33:36;;;;;;;19.00;12.05;;;;;;;11.06;100.00;95670.66;1011323;29;21095;-68
2021/07/12 02:34:06;;;;;;;18.55;12.23;;;;;;;11.02;100.00;95667.00;1006909;29;20029;-68
2021/07/12 02:34:37;;;;;;;19.00;11.65;;;;;;;11.09;100.00;95671.97;1006742;29;20025;-68
2021/07/12 02:35:09;;;;;;;20.80;11.70;;;;;;;11.06;100.00;95675.91;1010619;29;20039;-68
2021/07/12 02:35:39;;;;;;;16.98;11.13;;;;;;;11.07;100.00;95679.34;1010856;29;20165;-68
2021/07/12 02:36:10;;;;;;;18.35;11.18;;;;;;;11.07;100.00;95671.47;1011059;29;20269;-65
2021/07/12 02:36:40;;;;;;;15.23;11.80;;;;;;;11.07;100.00;95680.13;1010787;29;20123;-68
2021/07/12 02:37:12;;;;;;;20.17;11.23;;;;;;;11.07;100.00;95669.63;1013846;29;20033;-66
2021/07/12 02:37:43;;;;;;;18.95;11.85;;;;;;;11.04;100.00;95672.78;1014082;29;20072;-68
2021/07/12 02:38:14;;;;;;;17.83;12.00;;;;;;;11.06;100.00;95673.28;1006499;29;20261;-67
2021/07/12 02:38:45;;;;;;;18.70;11.70;;;;;;;11.07;100.00;95674.88;1014335;29;20283;-68
2021/07/12 02:39:15;;;;;;;14.75;10.75;;;;;;;11.06;100.00;95669.88;1006955;29;20265;-68
2021/07/12 02:39:46;;;;;;;21.25;12.43;;;;;;;11.00;100.00;95658.63;1007055;29;20093;-67
2021/07/12 02:40:17;;;;;;;24.45;11.02;;;;;;;11.05;100.00;95676.97;1011132;29;20032;-68